Steilacoom, Washington
Current Conditions -  °F | °C
As of 5:58 PM on Friday 24 Oct 2014 (Local Time) from KTCM Reporting Station
Light Rain Light Rain  
Wind Chill: 54°   Ceiling: 7000
Heat Index: 54°   Visibility: 10mi
Dew Point: 48°   Wind: 2mph
Humidity: 82%   Direction: 10°N
Pressure: 29.86"   Gusts: NA
Location:  47.17°N, 122.59°W
Report Text: KTCM 250058Z AUTO 01002KT 10SM -RA SCT055 BKN070 12/09 A2986 RMK AO2 RAB0056 SLP116 $
Loading
Personal Weather Stations






























Interactive Weather Map
Tropical Storm Tracking
New forecast layout! Learn more

10-Day Weather Forecast

Advertisements
Track Severe Weather on mobile